createdAt,value
2019-02-21T00:02:02.139Z,32.93
2019-02-21T00:04:32.917Z,30.45
2019-02-21T00:07:03.695Z,28.80
2019-02-21T00:09:34.521Z,29.50
2019-02-21T00:12:05.273Z,30.10
2019-02-21T00:14:36.235Z,32.37
2019-02-21T00:17:07.012Z,27.93
2019-02-21T00:19:37.772Z,32.13
2019-02-21T00:22:08.535Z,26.73
2019-02-21T00:24:40.062Z,26.20
2019-02-21T00:27:10.877Z,28.70
2019-02-21T00:29:41.633Z,29.80
2019-02-21T00:32:12.399Z,31.73
2019-02-21T00:34:43.171Z,34.90
2019-02-21T00:37:13.934Z,26.37
2019-02-21T00:39:44.702Z,34.57
2019-02-21T00:42:15.467Z,31.27
2019-02-21T00:44:46.222Z,31.83
2019-02-21T00:47:16.995Z,27.83
2019-02-21T00:49:47.749Z,29.57
2019-02-21T00:52:18.580Z,27.63
2019-02-21T00:54:49.355Z,26.50
2019-02-21T00:57:20.120Z,26.43
2019-02-21T00:59:51.093Z,24.17
2019-02-21T01:02:21.838Z,29.97
2019-02-21T01:04:52.600Z,28.30
2019-02-21T01:07:23.366Z,27.57
2019-02-21T01:09:54.124Z,27.80
2019-02-21T01:12:24.994Z,29.87
2019-02-21T01:14:55.755Z,29.80
2019-02-21T01:17:26.557Z,28.80
2019-02-21T01:19:57.319Z,27.23
2019-02-21T01:22:28.088Z,27.13
2019-02-21T01:24:58.839Z,29.97
2019-02-21T01:27:29.619Z,31.47
2019-02-21T01:30:00.540Z,28.97
2019-02-21T01:32:31.370Z,34.00
2019-02-21T01:35:02.832Z,30.30
2019-02-21T01:37:33.607Z,27.32
2019-02-21T01:40:06.807Z,31.70
2019-02-21T01:42:37.554Z,31.12
2019-02-21T01:45:08.777Z,29.27
2019-02-21T01:47:39.558Z,27.25
2019-02-21T01:50:10.345Z,29.50
2019-02-21T01:52:41.115Z,31.13
2019-02-21T01:55:11.890Z,31.63
2019-02-21T01:57:42.656Z,26.13
2019-02-21T02:00:13.722Z,30.10
2019-02-21T02:02:44.603Z,33.98
2019-02-21T02:05:15.358Z,29.27
2019-02-21T02:07:46.154Z,28.97
2019-02-21T02:10:16.919Z,33.10
2019-02-21T02:12:47.686Z,31.00
2019-02-21T02:15:18.555Z,30.87
2019-02-21T02:17:49.329Z,28.40
2019-02-21T02:20:20.107Z,33.90
2019-02-21T02:22:51.215Z,31.17
2019-02-21T02:25:21.979Z,34.13
2019-02-21T02:27:52.751Z,30.80
2019-02-21T02:30:23.503Z,36.20
2019-02-21T02:32:54.282Z,33.07
2019-02-21T02:35:25.035Z,29.93
2019-02-21T02:37:55.820Z,32.07
2019-02-21T02:40:26.566Z,30.20
2019-02-21T02:42:57.349Z,32.07
2019-02-21T02:45:28.105Z,31.57
2019-02-21T02:47:58.917Z,31.53
2019-02-21T02:50:29.679Z,28.03
2019-02-21T02:53:00.543Z,32.60
2019-02-21T02:55:31.380Z,30.03
2019-02-21T02:58:02.338Z,30.67
2019-02-21T03:00:33.108Z,25.17
2019-02-21T03:03:03.882Z,31.53
2019-02-21T03:05:34.646Z,33.50
2019-02-21T03:08:05.525Z,27.30
2019-02-21T03:10:36.278Z,27.93
2019-02-21T03:13:07.066Z,30.60
2019-02-21T03:15:37.814Z,27.37
2019-02-21T03:18:08.592Z,26.50
2019-02-21T03:20:39.384Z,27.80
2019-02-21T03:23:10.167Z,27.07
2019-02-21T03:25:40.919Z,28.37
2019-02-21T03:28:11.692Z,27.67
2019-02-21T03:30:42.459Z,23.93
2019-02-21T03:33:13.433Z,25.17
2019-02-21T03:35:44.213Z,25.20
2019-02-21T03:38:14.994Z,29.33
2019-02-21T03:40:45.720Z,30.07
2019-02-21T03:43:16.491Z,24.43
2019-02-21T03:45:47.255Z,28.30
2019-02-21T03:48:18.034Z,28.00
2019-02-21T03:50:48.791Z,27.00
2019-02-21T03:53:19.558Z,33.30
2019-02-21T03:55:50.340Z,31.03
2019-02-21T03:58:21.212Z,28.43
2019-02-21T04:00:51.994Z,29.40
2019-02-21T04:03:22.743Z,27.60
2019-02-21T04:05:53.610Z,27.90
2019-02-21T04:08:24.385Z,23.23
2019-02-21T04:10:55.213Z,27.10
2019-02-21T04:13:25.962Z,25.20
2019-02-21T04:15:56.838Z,30.33
2019-02-21T04:18:27.607Z,26.70
2019-02-21T04:20:58.359Z,32.97
2019-02-21T04:23:29.124Z,26.80
2019-02-21T04:25:59.882Z,24.77
2019-02-21T04:28:30.679Z,26.57
2019-02-21T04:31:01.421Z,29.50
2019-02-21T04:33:34.249Z,31.13
2019-02-21T04:36:04.870Z,27.07
2019-02-21T04:38:35.626Z,26.80
2019-02-21T04:41:06.411Z,30.20
2019-02-21T04:43:37.181Z,28.57
2019-02-21T04:46:07.943Z,26.07
2019-02-21T04:48:38.715Z,28.90
2019-02-21T04:51:09.494Z,25.20
2019-02-21T04:53:40.247Z,27.83
2019-02-21T04:56:11.022Z,24.83
2019-02-21T04:58:41.792Z,27.03
2019-02-21T05:01:12.552Z,27.07
2019-02-21T05:03:43.320Z,26.80
2019-02-21T05:06:14.076Z,26.33
2019-02-21T05:08:44.842Z,28.20
2019-02-21T05:11:15.604Z,24.73
2019-02-21T05:13:46.379Z,30.57
2019-02-21T05:16:17.142Z,27.90
2019-02-21T05:18:47.914Z,28.60
2019-02-21T05:21:18.669Z,26.93
2019-02-21T05:23:49.442Z,22.17
2019-02-21T05:26:22.111Z,28.20
2019-02-21T05:28:52.879Z,30.05
2019-02-21T05:31:43.791Z,25.50
2019-02-21T05:34:25.616Z,28.27
2019-02-21T05:37:16.390Z,28.62
2019-02-21T05:39:49.075Z,25.32
2019-02-21T05:42:39.897Z,29.70
2019-02-21T05:45:30.785Z,30.35
2019-02-21T05:48:03.396Z,27.07
2019-02-21T05:50:36.072Z,27.00
2019-02-21T05:53:25.392Z,27.20
2019-02-21T05:56:03.875Z,25.32
2019-02-21T05:58:42.104Z,25.50
2019-02-21T06:01:31.502Z,22.25
2019-02-21T06:04:06.962Z,25.32
2019-02-21T06:06:56.008Z,26.57
2019-02-21T06:09:28.683Z,22.52
2019-02-21T06:12:01.404Z,28.75
2019-02-21T06:14:52.420Z,32.67
2019-02-21T06:17:27.889Z,21.90
2019-02-21T06:20:12.371Z,27.07
2019-02-21T06:22:50.827Z,35.52
2019-02-21T06:25:29.740Z,28.30
2019-02-21T06:28:03.701Z,30.43
2019-02-21T06:30:36.391Z,37.28
2019-02-21T06:33:07.157Z,29.37
2019-02-21T06:35:37.922Z,29.37
2019-02-21T06:38:08.687Z,47.90
2019-02-21T06:40:39.451Z,77.33
2019-02-21T06:43:10.220Z,30.23
2019-02-21T06:45:41.051Z,47.13
2019-02-21T06:48:11.825Z,46.70
2019-02-21T06:50:42.616Z,37.13
2019-02-21T06:53:13.383Z,37.37
2019-02-21T06:55:44.161Z,49.17
2019-02-21T06:58:14.937Z,34.30
2019-02-21T07:00:46.324Z,36.63
2019-02-21T07:03:17.192Z,28.40
2019-02-21T07:05:47.954Z,29.43
2019-02-21T07:08:18.728Z,44.80
2019-02-21T07:10:49.506Z,32.03
2019-02-21T07:13:26.456Z,32.33
2019-02-21T07:15:52.934Z,30.72
2019-02-21T07:18:23.696Z,36.33
2019-02-21T07:20:54.465Z,33.60
2019-02-21T07:23:26.028Z,37.13
2019-02-21T07:25:58.201Z,35.23
2019-02-21T07:28:29.588Z,35.33
2019-02-21T07:31:00.366Z,38.08
2019-02-21T07:33:31.135Z,35.90
2019-02-21T07:36:01.915Z,36.77
2019-02-21T07:38:32.669Z,36.33
2019-02-21T07:41:03.503Z,40.73
2019-02-21T07:43:34.382Z,41.37
2019-02-21T07:46:06.958Z,35.50
2019-02-21T07:48:38.107Z,38.13
2019-02-21T07:51:08.888Z,40.17
2019-02-21T07:53:39.649Z,40.13
2019-02-21T07:56:10.411Z,39.63
2019-02-21T07:58:41.184Z,36.53
2019-02-21T08:01:11.970Z,38.40
2019-02-21T08:03:45.951Z,46.93
2019-02-21T08:06:15.425Z,43.40
2019-02-21T08:08:46.183Z,48.20
2019-02-21T08:11:16.944Z,50.50
2019-02-21T08:13:47.826Z,53.57
2019-02-21T08:16:18.586Z,47.90
2019-02-21T08:18:49.372Z,35.53
2019-02-21T08:21:20.132Z,31.53
2019-02-21T08:23:51.143Z,24.07
2019-02-21T08:26:21.970Z,24.35
2019-02-21T08:28:52.739Z,24.37
2019-02-21T08:31:23.501Z,29.80
2019-02-21T08:33:58.667Z,22.97
2019-02-21T08:36:28.845Z,20.52
2019-02-21T08:38:59.618Z,24.17
2019-02-21T08:41:30.390Z,19.80
2019-02-21T08:44:01.149Z,18.67
2019-02-21T08:46:31.908Z,19.57
2019-02-21T08:49:02.670Z,21.83
2019-02-21T08:51:33.429Z,24.30
2019-02-21T08:54:05.663Z,21.30
2019-02-21T08:56:36.933Z,21.10
2019-02-21T08:59:07.700Z,19.48
2019-02-21T09:01:38.460Z,26.27
2019-02-21T09:04:13.568Z,20.40
2019-02-21T09:06:41.885Z,23.73
2019-02-21T09:09:12.656Z,20.07
2019-02-21T09:11:43.414Z,23.00
2019-02-21T09:14:14.187Z,24.37
2019-02-21T09:16:44.943Z,22.10
2019-02-21T09:19:15.720Z,19.50
2019-02-21T09:21:46.492Z,22.60
2019-02-21T09:24:35.246Z,19.50
2019-02-21T09:26:49.928Z,20.62
2019-02-21T09:29:20.712Z,20.30
2019-02-21T09:31:51.477Z,22.67
2019-02-21T09:34:22.243Z,21.83
2019-02-21T09:36:53.039Z,18.87
2019-02-21T09:39:23.830Z,20.63
2019-02-21T09:41:54.592Z,19.97
2019-02-21T09:44:27.400Z,20.83
2019-02-21T09:46:58.352Z,23.67
2019-02-21T09:49:29.147Z,20.93
2019-02-21T09:51:59.894Z,17.90
2019-02-21T09:54:30.693Z,17.07
2019-02-21T09:57:12.545Z,18.70
2019-02-21T09:59:34.156Z,25.53
2019-02-21T10:02:04.957Z,21.23
2019-02-21T10:04:35.750Z,20.60
2019-02-21T10:07:06.516Z,20.70
2019-02-21T10:09:37.271Z,18.50
2019-02-21T10:12:08.036Z,19.90
2019-02-21T10:14:38.801Z,21.47
2019-02-21T10:17:09.556Z,19.93
2019-02-21T10:19:40.319Z,22.77
2019-02-21T10:22:11.205Z,17.60
2019-02-21T10:24:41.968Z,22.10
2019-02-21T10:27:12.941Z,23.70
2019-02-21T10:29:43.701Z,18.60
2019-02-21T10:32:14.474Z,19.73
2019-02-21T10:34:45.241Z,21.87
2019-02-21T10:37:16.013Z,20.27
2019-02-21T10:39:47.882Z,22.00
2019-02-21T10:42:18.763Z,19.40
2019-02-21T10:44:49.519Z,20.20
2019-02-21T10:47:20.293Z,19.93
2019-02-21T10:49:51.067Z,18.90
2019-02-21T10:52:21.828Z,19.03
2019-02-21T10:54:52.593Z,21.33
2019-02-21T10:57:23.369Z,18.90
2019-02-21T10:59:54.125Z,20.80
2019-02-21T11:02:25.000Z,22.20
2019-02-21T11:04:55.766Z,19.87
2019-02-21T11:07:26.877Z,20.90
2019-02-21T11:09:57.692Z,20.77
2019-02-21T11:12:28.511Z,19.60
2019-02-21T11:14:59.281Z,18.70
2019-02-21T11:17:30.047Z,18.83
2019-02-21T11:20:00.807Z,18.30
2019-02-21T11:22:31.584Z,25.77
2019-02-21T11:25:03.935Z,20.70
2019-02-21T11:27:34.707Z,22.10
2019-02-21T11:30:13.664Z,23.03
2019-02-21T11:32:44.534Z,24.53
2019-02-21T11:35:15.391Z,23.27
2019-02-21T11:37:47.404Z,17.60
2019-02-21T11:40:18.346Z,18.90
2019-02-21T11:42:49.157Z,23.13
2019-02-21T11:45:19.980Z,25.50
2019-02-21T11:47:50.800Z,19.90
2019-02-21T11:50:21.635Z,19.53
2019-02-21T11:52:52.410Z,17.50
2019-02-21T11:55:24.479Z,20.00
2019-02-21T11:57:55.285Z,15.03
2019-02-21T12:00:28.834Z,14.50
2019-02-21T12:02:59.621Z,15.97
2019-02-21T12:05:31.942Z,19.23
2019-02-21T12:08:09.107Z,16.30
2019-02-21T12:10:39.870Z,17.33
2019-02-21T12:13:10.666Z,16.70
2019-02-21T12:15:41.422Z,18.20
2019-02-21T12:18:12.212Z,14.93
2019-02-21T12:20:43.256Z,17.73
2019-02-21T12:23:17.676Z,20.40
2019-02-21T12:25:47.578Z,13.40
2019-02-21T12:28:18.366Z,12.10
2019-02-21T12:30:49.130Z,16.83
2019-02-21T12:33:19.900Z,15.27
2019-02-21T12:35:50.654Z,19.70
2019-02-21T12:38:21.462Z,19.13
2019-02-21T12:40:52.201Z,16.73
2019-02-21T12:43:22.969Z,14.40
2019-02-21T12:45:57.466Z,16.63
2019-02-21T12:48:28.233Z,19.20
2019-02-21T12:50:58.989Z,17.50
2019-02-21T12:53:29.770Z,17.80
2019-02-21T12:56:00.540Z,16.57
2019-02-21T12:58:31.313Z,16.83
2019-02-21T13:01:02.072Z,17.23
2019-02-21T13:03:32.885Z,17.60
2019-02-21T13:06:03.656Z,13.73
2019-02-21T13:08:34.472Z,16.57
2019-02-21T13:11:05.295Z,14.50
2019-02-21T13:13:36.147Z,15.43
2019-02-21T13:16:06.909Z,14.23
2019-02-21T13:18:37.692Z,15.50
2019-02-21T13:21:08.458Z,14.83
2019-02-21T13:23:39.234Z,14.30
2019-02-21T13:26:09.986Z,15.93
2019-02-21T13:28:40.869Z,17.27
2019-02-21T13:31:11.657Z,15.33
2019-02-21T13:33:42.440Z,17.53
2019-02-21T13:36:13.187Z,19.37
2019-02-21T13:38:43.963Z,15.53
2019-02-21T13:41:14.735Z,16.70
2019-02-21T13:43:45.502Z,15.33
2019-02-21T13:46:16.266Z,15.50
2019-02-21T13:48:47.057Z,15.53
2019-02-21T13:51:17.789Z,13.70
2019-02-21T13:53:48.560Z,18.60
2019-02-21T13:56:19.334Z,19.70
2019-02-21T13:58:50.101Z,15.13
2019-02-21T14:01:20.877Z,20.17
2019-02-21T14:03:51.642Z,16.60
2019-02-21T14:06:22.429Z,16.77
2019-02-21T14:08:53.177Z,18.50
2019-02-21T14:11:23.939Z,16.90
2019-02-21T14:13:54.712Z,16.40
2019-02-21T14:16:25.469Z,17.30
2019-02-21T14:18:56.258Z,15.90
2019-02-21T14:21:27.022Z,16.10
2019-02-21T14:23:57.795Z,14.83
2019-02-21T14:26:29.038Z,11.37
2019-02-21T14:28:59.883Z,11.60
2019-02-21T14:31:33.466Z,10.60
2019-02-21T14:34:03.324Z,15.30
2019-02-21T14:36:34.082Z,11.50
2019-02-21T14:39:05.273Z,12.73
2019-02-21T14:41:37.053Z,13.97
2019-02-21T14:44:07.836Z,11.20
2019-02-21T14:46:38.615Z,12.73
2019-02-21T14:49:09.381Z,13.67
2019-02-21T14:51:40.138Z,14.93
2019-02-21T14:54:10.902Z,13.03
2019-02-21T14:56:41.680Z,13.60
2019-02-21T14:59:12.454Z,12.90
2019-02-21T15:01:43.238Z,16.07
2019-02-21T15:04:13.985Z,12.40
2019-02-21T15:06:44.757Z,16.07
2019-02-21T15:09:15.521Z,16.80
2019-02-21T15:11:46.289Z,18.77
2019-02-21T15:14:17.061Z,13.47
2019-02-21T15:16:47.820Z,15.43
2019-02-21T15:19:18.616Z,15.60
2019-02-21T15:21:49.377Z,13.30
2019-02-21T15:24:20.382Z,13.77
2019-02-21T15:26:51.148Z,15.43
2019-02-21T15:29:21.936Z,17.03
2019-02-21T15:31:52.686Z,12.90
2019-02-21T15:34:23.442Z,13.80
2019-02-21T15:36:54.215Z,15.97
2019-02-21T15:39:24.993Z,16.17
2019-02-21T15:41:55.765Z,13.27
2019-02-21T15:44:26.527Z,14.27
2019-02-21T15:46:57.294Z,13.30
2019-02-21T15:49:28.059Z,16.07
2019-02-21T15:51:58.888Z,13.10
2019-02-21T15:54:29.584Z,14.13
2019-02-21T15:57:00.370Z,13.77
2019-02-21T15:59:31.134Z,13.50
2019-02-21T16:02:02.020Z,12.60
2019-02-21T16:04:35.294Z,16.57
2019-02-21T16:07:05.434Z,16.50
2019-02-21T16:09:36.190Z,14.77
2019-02-21T16:12:07.323Z,14.07
2019-02-21T16:14:38.243Z,20.83
2019-02-21T16:17:09.016Z,15.70
2019-02-21T16:19:39.762Z,15.40
2019-02-21T16:22:10.531Z,16.40
2019-02-21T16:24:43.704Z,13.90
2019-02-21T16:27:13.972Z,17.00
2019-02-21T16:29:44.770Z,17.50
2019-02-21T16:32:15.498Z,18.00
2019-02-21T16:34:46.252Z,18.30
2019-02-21T16:37:17.026Z,14.70
2019-02-21T16:39:47.795Z,15.23
2019-02-21T16:42:18.576Z,16.97
2019-02-21T16:44:49.338Z,14.07
2019-02-21T16:47:20.114Z,14.00
2019-02-21T16:49:50.882Z,19.10
2019-02-21T16:52:21.653Z,17.27
2019-02-21T16:54:52.432Z,18.90
2019-02-21T16:57:23.223Z,17.00
2019-02-21T16:59:53.993Z,14.77
2019-02-21T17:02:24.768Z,15.80
2019-02-21T17:04:55.886Z,17.70
2019-02-21T17:07:26.827Z,16.47
2019-02-21T17:09:57.590Z,14.80
2019-02-21T17:12:28.367Z,15.13
2019-02-21T17:14:59.129Z,15.30
2019-02-21T17:17:29.900Z,17.53
2019-02-21T17:20:00.691Z,17.27
2019-02-21T17:22:31.463Z,19.80
2019-02-21T17:25:02.920Z,14.60
2019-02-21T17:27:33.706Z,13.67
2019-02-21T17:30:13.351Z,13.70
2019-02-21T17:32:44.436Z,13.50
2019-02-21T17:35:15.204Z,14.93
2019-02-21T17:37:45.972Z,16.70
2019-02-21T17:40:20.945Z,16.73
2019-02-21T17:42:51.730Z,18.77
2019-02-21T17:45:22.504Z,15.50
2019-02-21T17:47:53.283Z,13.23
2019-02-21T17:50:24.039Z,15.00
2019-02-21T17:52:54.811Z,16.37
2019-02-21T17:55:25.587Z,16.27
2019-02-21T17:57:56.350Z,13.13
2019-02-21T18:00:31.796Z,16.67
2019-02-21T18:03:02.783Z,65.17
2019-02-21T18:05:33.547Z,47.77
2019-02-21T18:08:04.335Z,41.37
2019-02-21T18:10:35.083Z,33.57
2019-02-21T18:13:05.852Z,38.57
2019-02-21T18:15:36.627Z,26.77
2019-02-21T18:18:07.396Z,39.37
2019-02-21T18:20:38.149Z,25.73
2019-02-21T18:23:08.922Z,19.60
2019-02-21T18:25:46.146Z,19.30
2019-02-21T18:28:16.935Z,15.75
2019-02-21T18:30:47.702Z,19.87
2019-02-21T18:33:18.483Z,17.47
2019-02-21T18:35:49.241Z,15.10
2019-02-21T18:38:20.020Z,15.03
2019-02-21T18:40:50.885Z,17.80
2019-02-21T18:43:21.851Z,15.47
2019-02-21T18:45:52.675Z,18.23
2019-02-21T18:48:23.444Z,21.60
2019-02-21T18:50:54.240Z,19.43
2019-02-21T18:53:25.307Z,25.43
2019-02-21T18:55:56.116Z,25.40
2019-02-21T18:58:26.890Z,16.80
2019-02-21T19:00:57.672Z,18.40
2019-02-21T19:03:28.442Z,18.10
2019-02-21T19:05:59.201Z,18.77
2019-02-21T19:08:29.969Z,17.97
2019-02-21T19:11:00.840Z,21.00
2019-02-21T19:13:31.617Z,18.43
2019-02-21T19:16:02.373Z,17.63
2019-02-21T19:18:33.139Z,18.07
2019-02-21T19:21:04.001Z,14.83
2019-02-21T19:23:34.770Z,20.87
2019-02-21T19:26:05.544Z,19.70
2019-02-21T19:28:36.315Z,21.30
2019-02-21T19:31:09.876Z,21.50
2019-02-21T19:33:40.765Z,20.25
2019-02-21T19:36:11.733Z,19.50
2019-02-21T19:38:42.594Z,17.50
2019-02-21T19:41:13.455Z,18.10
2019-02-21T19:43:44.275Z,17.30
2019-02-21T19:46:15.036Z,25.63
2019-02-21T19:48:45.794Z,21.13
2019-02-21T19:51:16.565Z,17.30
2019-02-21T19:53:47.427Z,20.90
2019-02-21T19:56:18.209Z,16.00
2019-02-21T19:58:48.968Z,16.97
2019-02-21T20:01:19.766Z,18.83
2019-02-21T20:03:50.519Z,24.53
2019-02-21T20:06:21.285Z,28.67
2019-02-21T20:08:52.050Z,18.70
2019-02-21T20:11:22.920Z,27.67
2019-02-21T20:13:53.692Z,18.80
2019-02-21T20:16:24.455Z,18.73
2019-02-21T20:18:55.210Z,14.50
2019-02-21T20:21:26.082Z,19.73
2019-02-21T20:23:56.843Z,17.87
2019-02-21T20:26:27.606Z,20.00
2019-02-21T20:28:58.363Z,25.33
2019-02-21T20:31:29.179Z,19.00
2019-02-21T20:33:59.888Z,17.70
2019-02-21T20:36:30.770Z,21.53
2019-02-21T20:39:01.735Z,24.50
2019-02-21T20:41:32.615Z,19.60
2019-02-21T20:44:03.377Z,21.93
2019-02-21T20:46:34.243Z,17.50
2019-02-21T20:49:04.994Z,19.37
2019-02-21T20:51:35.768Z,18.80
2019-02-21T20:54:06.529Z,21.60
2019-02-21T20:56:37.306Z,19.77
2019-02-21T20:59:08.076Z,17.20
2019-02-21T21:01:38.848Z,20.70
2019-02-21T21:04:09.705Z,21.73
2019-02-21T21:06:40.482Z,18.43
2019-02-21T21:09:11.250Z,22.33
2019-02-21T21:11:42.104Z,27.27
2019-02-21T21:14:12.874Z,16.90
2019-02-21T21:16:43.645Z,23.00
2019-02-21T21:19:14.395Z,17.97
2019-02-21T21:21:45.198Z,20.27
2019-02-21T21:24:15.946Z,19.43
2019-02-21T21:26:47.024Z,21.63
2019-02-21T21:29:17.786Z,21.52
2019-02-21T21:31:48.560Z,22.57
2019-02-21T21:34:19.326Z,16.93
2019-02-21T21:36:50.137Z,20.03
2019-02-21T21:39:20.892Z,17.07
2019-02-21T21:41:51.804Z,17.33
2019-02-21T21:44:22.573Z,20.23
2019-02-21T21:46:53.352Z,22.67
2019-02-21T21:49:24.109Z,20.97
2019-02-21T21:51:54.875Z,19.40
2019-02-21T21:54:25.637Z,20.13
2019-02-21T21:56:56.420Z,19.97
2019-02-21T21:59:27.210Z,20.00
2019-02-21T22:01:57.975Z,20.33
2019-02-21T22:04:28.757Z,18.83
2019-02-21T22:06:59.527Z,20.20
2019-02-21T22:09:30.291Z,24.50
2019-02-21T22:12:01.049Z,20.63
2019-02-21T22:14:31.816Z,20.10
2019-02-21T22:17:02.662Z,17.67
2019-02-21T22:19:33.447Z,18.93
2019-02-21T22:22:04.217Z,19.90
2019-02-21T22:24:34.972Z,20.47
2019-02-21T22:27:05.756Z,23.13
2019-02-21T22:29:36.506Z,19.03
2019-02-21T22:32:07.279Z,18.70
2019-02-21T22:34:38.032Z,20.83
2019-02-21T22:37:08.826Z,17.77
2019-02-21T22:39:39.581Z,17.70
2019-02-21T22:42:10.403Z,19.40
2019-02-21T22:44:41.114Z,20.47
2019-02-21T22:47:11.885Z,21.40
2019-02-21T22:49:42.663Z,20.67
2019-02-21T22:52:13.432Z,19.13
2019-02-21T22:54:44.199Z,21.73
2019-02-21T22:57:14.969Z,22.00
2019-02-21T22:59:45.835Z,19.20
2019-02-21T23:02:17.313Z,19.67
2019-02-21T23:04:51.915Z,22.77
2019-02-21T23:07:26.488Z,19.00
2019-02-21T23:09:57.259Z,23.18
2019-02-21T23:12:28.032Z,19.40
2019-02-21T23:14:58.794Z,24.10
2019-02-21T23:17:29.575Z,21.27
2019-02-21T23:20:00.380Z,20.17
2019-02-21T23:22:31.109Z,22.50
2019-02-21T23:25:03.057Z,22.47
2019-02-21T23:27:33.839Z,22.20
2019-02-21T23:30:07.695Z,25.90
2019-02-21T23:32:38.485Z,21.87
2019-02-21T23:35:11.142Z,27.27
2019-02-21T23:37:41.926Z,22.48
2019-02-21T23:40:12.686Z,21.40
2019-02-21T23:42:43.464Z,22.77
2019-02-21T23:45:14.221Z,22.50
2019-02-21T23:47:49.660Z,24.80
2019-02-21T23:50:17.651Z,22.37
2019-02-21T23:52:48.433Z,19.83
2019-02-21T23:55:19.194Z,20.77
2019-02-21T23:57:50.476Z,22.10
